createdAt,value
2023-02-24T00:00:32.603Z,52.06
2023-02-24T00:03:05.910Z,52.01
2023-02-24T00:05:39.337Z,51.86
2023-02-24T00:08:07.519Z,52.50
2023-02-24T00:10:38.177Z,52.63
2023-02-24T00:13:06.167Z,51.92
2023-02-24T00:15:34.261Z,52.80
2023-02-24T00:18:07.286Z,52.28
2023-02-24T00:20:36.446Z,51.78
2023-02-24T00:23:04.643Z,51.89
2023-02-24T00:25:32.605Z,51.76
2023-02-24T00:28:02.443Z,52.21
2023-02-24T00:30:33.174Z,51.99
2023-02-24T00:33:03.571Z,52.40
2023-02-24T00:35:31.766Z,51.91
2023-02-24T00:37:59.820Z,52.62
2023-02-24T00:40:30.426Z,52.70
2023-02-24T00:42:58.581Z,52.84
2023-02-24T00:45:30.934Z,52.44
2023-02-24T00:47:59.246Z,52.41
2023-02-24T00:50:27.512Z,52.99
2023-02-24T00:52:55.528Z,52.47
2023-02-24T00:55:23.636Z,53.02
2023-02-24T00:57:51.945Z,53.14
2023-02-24T01:00:21.459Z,52.60
2023-02-24T01:02:50.951Z,52.73
2023-02-24T01:05:20.034Z,52.55
2023-02-24T01:07:48.053Z,52.60
2023-02-24T01:10:18.451Z,52.92
2023-02-24T01:12:54.080Z,52.98
2023-02-24T01:15:24.121Z,52.51
2023-02-24T01:17:53.496Z,53.00
2023-02-24T01:20:21.617Z,52.96
2023-02-24T01:22:53.372Z,52.76
2023-02-24T01:25:21.729Z,52.59
2023-02-24T01:27:49.702Z,53.05
2023-02-24T01:30:18.733Z,53.52
2023-02-24T01:32:48.319Z,53.32
2023-02-24T01:35:18.823Z,53.61
2023-02-24T01:37:46.868Z,53.73
2023-02-24T01:40:20.687Z,53.51
2023-02-24T01:42:49.576Z,53.51
2023-02-24T01:45:22.812Z,53.99
2023-02-24T01:47:52.256Z,53.94
2023-02-24T01:50:26.276Z,53.95
2023-02-24T01:52:58.987Z,54.17
2023-02-24T01:55:32.364Z,54.02
2023-02-24T01:58:02.347Z,54.13
2023-02-24T02:00:39.487Z,54.06
2023-02-24T02:03:11.960Z,54.06
2023-02-24T02:05:45.269Z,53.77
2023-02-24T02:08:14.953Z,53.63
2023-02-24T02:10:45.406Z,54.01
2023-02-24T02:13:20.661Z,53.74
2023-02-24T02:16:03.041Z,53.96
2023-02-24T02:18:43.024Z,54.07
2023-02-24T02:21:40.235Z,54.41
2023-02-24T02:24:29.412Z,54.51
2023-02-24T02:27:29.496Z,54.64
2023-02-24T02:30:14.400Z,55.05
2023-02-24T02:33:15.906Z,55.55
2023-02-24T02:35:52.520Z,55.63
2023-02-24T02:38:28.025Z,55.62
2023-02-24T02:41:04.483Z,55.99
2023-02-24T02:43:40.048Z,56.48
2023-02-24T02:46:14.895Z,56.67
2023-02-24T02:48:50.572Z,56.74
2023-02-24T02:51:24.437Z,56.24
2023-02-24T02:54:01.617Z,56.57
2023-02-24T02:56:34.709Z,56.05
2023-02-24T02:59:05.375Z,56.51
2023-02-24T03:01:39.120Z,56.72
2023-02-24T03:04:10.848Z,56.24
2023-02-24T03:06:44.984Z,56.17
2023-02-24T03:09:18.244Z,55.84
2023-02-24T03:11:49.411Z,56.17
2023-02-24T03:14:21.608Z,56.10
2023-02-24T03:16:51.099Z,56.11
2023-02-24T03:19:25.246Z,56.07
2023-02-24T03:22:06.271Z,55.92
2023-02-24T03:24:38.874Z,56.00
2023-02-24T03:27:10.351Z,56.43
2023-02-24T03:29:45.931Z,55.86
2023-02-24T03:32:21.736Z,56.07
2023-02-24T03:34:56.785Z,56.28
2023-02-24T03:37:28.078Z,56.09
2023-02-24T03:39:59.366Z,56.19
2023-02-24T03:42:33.903Z,56.38
2023-02-24T03:45:02.822Z,56.37
2023-02-24T03:47:30.995Z,56.54
2023-02-24T03:49:58.935Z,56.13
2023-02-24T03:52:36.129Z,56.93
2023-02-24T03:55:17.880Z,56.29
2023-02-24T03:57:59.998Z,56.86
2023-02-24T04:00:37.168Z,56.36
2023-02-24T04:03:15.422Z,56.50
2023-02-24T04:05:49.693Z,55.95
2023-02-24T04:08:23.481Z,56.17
2023-02-24T04:10:58.224Z,56.29
2023-02-24T04:13:37.090Z,56.06
2023-02-24T04:16:17.018Z,56.28
2023-02-24T04:18:49.649Z,56.50
2023-02-24T04:21:20.413Z,56.62
2023-02-24T04:23:50.441Z,55.98
2023-02-24T04:26:19.562Z,56.09
2023-02-24T04:28:49.753Z,55.79
2023-02-24T04:31:21.145Z,56.22
2023-02-24T04:33:50.563Z,57.02
2023-02-24T04:36:20.153Z,56.66
2023-02-24T04:38:49.612Z,57.39
2023-02-24T04:41:21.687Z,56.90
2023-02-24T04:43:50.885Z,57.34
2023-02-24T04:46:19.523Z,57.05
2023-02-24T04:48:47.738Z,57.05
2023-02-24T04:51:16.114Z,56.74
2023-02-24T04:53:44.427Z,57.11
2023-02-24T04:56:13.857Z,56.84
2023-02-24T04:58:43.941Z,57.29
2023-02-24T05:01:12.750Z,57.13
2023-02-24T05:03:43.411Z,57.20
2023-02-24T05:06:16.193Z,57.08
2023-02-24T05:08:45.115Z,56.57
2023-02-24T05:11:17.174Z,56.81
2023-02-24T05:13:47.278Z,57.47
2023-02-24T05:16:17.604Z,57.36
2023-02-24T05:18:45.713Z,56.84
2023-02-24T05:21:32.633Z,56.42
2023-02-24T05:24:06.647Z,56.59
2023-02-24T05:26:38.225Z,56.87
2023-02-24T05:29:07.369Z,56.23
2023-02-24T05:31:35.461Z,56.83
2023-02-24T05:34:06.062Z,57.05
2023-02-24T05:36:36.654Z,56.20
2023-02-24T05:39:07.944Z,56.12
2023-02-24T05:41:42.118Z,56.11
2023-02-24T05:44:13.405Z,56.68
2023-02-24T05:46:44.740Z,56.23
2023-02-24T05:49:15.401Z,55.95
2023-02-24T05:51:54.875Z,55.88
2023-02-24T05:54:25.939Z,56.31
2023-02-24T05:56:57.035Z,56.73
2023-02-24T05:59:25.351Z,57.68
2023-02-24T06:01:54.214Z,57.74
2023-02-24T06:04:39.241Z,56.75
2023-02-24T06:07:09.012Z,57.65
2023-02-24T06:09:40.228Z,57.55
2023-02-24T06:12:09.764Z,57.57
2023-02-24T06:14:37.754Z,57.04
2023-02-24T06:17:05.822Z,57.56
2023-02-24T06:19:34.192Z,57.12
2023-02-24T06:22:03.665Z,57.26
2023-02-24T06:24:34.005Z,57.53
2023-02-24T06:27:09.688Z,57.57
2023-02-24T06:29:39.493Z,58.83
2023-02-24T06:32:08.882Z,58.55
2023-02-24T06:34:37.360Z,58.94
2023-02-24T06:37:07.256Z,57.99
2023-02-24T06:39:36.864Z,58.88
2023-02-24T06:42:08.811Z,58.45
2023-02-24T06:44:40.132Z,59.06
2023-02-24T06:47:09.769Z,58.63
2023-02-24T06:49:37.874Z,58.66
2023-02-24T06:52:07.094Z,58.67
2023-02-24T06:54:36.312Z,58.89
2023-02-24T06:57:05.351Z,59.03
2023-02-24T06:59:34.353Z,57.79
2023-02-24T07:02:03.864Z,57.91
2023-02-24T07:04:43.639Z,58.02
2023-02-24T07:07:14.168Z,58.69
2023-02-24T07:09:44.056Z,58.18
2023-02-24T07:12:12.762Z,57.87
2023-02-24T07:14:41.606Z,57.65
2023-02-24T07:17:14.849Z,56.88
2023-02-24T07:19:44.226Z,57.87
2023-02-24T07:22:14.756Z,57.15
2023-02-24T07:24:46.420Z,57.90
2023-02-24T07:27:22.485Z,56.92
2023-02-24T07:29:53.606Z,57.16
2023-02-24T07:32:25.581Z,57.24
2023-02-24T07:34:53.784Z,57.32
2023-02-24T07:37:23.684Z,57.05
2023-02-24T07:39:51.845Z,56.76
2023-02-24T07:42:19.918Z,56.35
2023-02-24T07:44:49.448Z,56.13
2023-02-24T07:47:17.603Z,56.19
2023-02-24T07:49:46.951Z,56.56
2023-02-24T07:52:16.217Z,56.54
2023-02-24T07:54:44.352Z,56.17
2023-02-24T07:57:14.484Z,55.57
2023-02-24T07:59:47.767Z,56.17
2023-02-24T08:02:16.795Z,55.96
2023-02-24T08:04:50.494Z,55.68
2023-02-24T08:07:24.533Z,55.87
2023-02-24T08:10:14.534Z,55.31
2023-02-24T08:12:47.678Z,55.43
2023-02-24T08:15:24.186Z,54.95
2023-02-24T08:17:55.498Z,55.02
2023-02-24T08:20:26.979Z,54.99
2023-02-24T08:22:55.601Z,54.87
2023-02-24T08:25:35.791Z,54.47
2023-02-24T08:28:09.427Z,54.39
2023-02-24T08:30:40.281Z,54.01
2023-02-24T08:33:10.542Z,54.09
2023-02-24T08:35:45.148Z,53.95
2023-02-24T08:38:16.437Z,53.79
2023-02-24T08:40:54.832Z,53.48
2023-02-24T08:43:33.038Z,53.49
2023-02-24T08:46:06.647Z,52.94
2023-02-24T08:48:42.349Z,53.19
2023-02-24T08:51:18.118Z,52.32
2023-02-24T08:53:47.385Z,52.25
2023-02-24T08:56:24.422Z,51.82
2023-02-24T08:58:57.154Z,51.83
2023-02-24T09:01:27.991Z,51.82
2023-02-24T09:03:57.557Z,51.51
2023-02-24T09:06:37.532Z,51.69
2023-02-24T09:09:18.677Z,51.73
2023-02-24T09:11:47.980Z,51.27
2023-02-24T09:14:26.595Z,50.32
2023-02-24T09:17:03.454Z,50.84
2023-02-24T09:19:56.871Z,50.64
2023-02-24T09:22:32.705Z,49.75
2023-02-24T09:25:24.099Z,49.88
2023-02-24T09:27:55.759Z,50.17
2023-02-24T09:30:51.110Z,50.27
2023-02-24T09:33:22.541Z,49.58
2023-02-24T09:36:03.367Z,48.73
2023-02-24T09:38:50.461Z,46.48
2023-02-24T09:41:31.965Z,43.93
2023-02-24T09:44:07.598Z,40.84
2023-02-24T09:46:54.000Z,37.25
2023-02-24T09:49:25.495Z,35.06
2023-02-24T09:52:00.657Z,32.54
2023-02-24T09:54:35.774Z,30.38
2023-02-24T09:57:10.057Z,28.28
2023-02-24T10:00:01.424Z,26.62
2023-02-24T10:02:44.658Z,23.37
2023-02-24T10:05:24.877Z,21.50
2023-02-24T10:07:57.213Z,20.65
2023-02-24T10:10:30.037Z,19.31
2023-02-24T10:13:13.274Z,18.55
2023-02-24T10:15:59.522Z,18.00
2023-02-24T10:18:33.144Z,16.77
2023-02-24T10:21:16.838Z,16.01
2023-02-24T10:24:05.738Z,15.03
2023-02-24T10:26:59.615Z,14.28
2023-02-24T10:29:43.613Z,13.55
2023-02-24T10:32:24.170Z,13.40
2023-02-24T10:34:53.178Z,13.12
2023-02-24T10:37:28.706Z,12.46
2023-02-24T10:39:58.919Z,12.10
2023-02-24T10:42:31.785Z,11.63
2023-02-24T10:45:17.986Z,11.40
2023-02-24T10:47:57.035Z,11.27
2023-02-24T10:50:30.368Z,11.02
2023-02-24T10:53:26.598Z,10.94
2023-02-24T10:56:15.170Z,10.69
2023-02-24T10:58:56.919Z,10.67
2023-02-24T11:01:40.972Z,10.36
2023-02-24T11:04:23.061Z,10.16
2023-02-24T11:06:55.782Z,10.05
2023-02-24T11:09:35.431Z,9.76
2023-02-24T11:12:31.095Z,9.50
2023-02-24T11:15:21.282Z,9.14
2023-02-24T11:17:52.084Z,9.92
2023-02-24T11:20:42.563Z,9.23
2023-02-24T11:23:18.845Z,8.66
2023-02-24T11:25:50.257Z,8.14
2023-02-24T11:28:53.125Z,7.68
2023-02-24T11:31:41.570Z,7.75
2023-02-24T11:34:17.922Z,7.88
2023-02-24T11:36:55.083Z,7.85
2023-02-24T11:39:49.099Z,8.35
2023-02-24T11:42:22.825Z,8.96
2023-02-24T11:44:57.311Z,9.47
2023-02-24T11:47:32.278Z,10.85
2023-02-24T11:50:09.658Z,13.37
2023-02-24T11:52:46.899Z,15.33
2023-02-24T11:55:21.498Z,17.03
2023-02-24T11:57:54.629Z,18.08
2023-02-24T12:00:28.093Z,19.35
2023-02-24T12:03:05.139Z,20.09
2023-02-24T12:05:37.252Z,21.33
2023-02-24T12:08:11.029Z,21.99
2023-02-24T12:10:46.495Z,22.76
2023-02-24T12:13:22.491Z,23.43
2023-02-24T12:15:57.152Z,23.65
2023-02-24T12:18:31.225Z,23.92
2023-02-24T12:21:06.932Z,24.14
2023-02-24T12:23:37.628Z,24.33
2023-02-24T12:26:19.394Z,24.85
2023-02-24T12:29:16.800Z,24.73
2023-02-24T12:31:57.564Z,25.11
2023-02-24T12:34:38.299Z,25.25
2023-02-24T12:37:35.950Z,25.60
2023-02-24T12:40:14.392Z,26.05
2023-02-24T12:42:51.637Z,26.21
2023-02-24T12:45:27.670Z,26.01
2023-02-24T12:48:06.840Z,26.48
2023-02-24T12:50:49.964Z,26.44
2023-02-24T12:53:23.718Z,26.70
2023-02-24T12:56:04.462Z,26.52
2023-02-24T12:58:35.859Z,26.82
2023-02-24T13:01:13.532Z,26.77
2023-02-24T13:03:57.290Z,26.99
2023-02-24T13:06:38.787Z,26.62
2023-02-24T13:09:14.880Z,27.11
2023-02-24T13:11:49.115Z,27.12
2023-02-24T13:14:27.416Z,26.88
2023-02-24T13:17:17.684Z,26.77
2023-02-24T13:19:46.283Z,26.36
2023-02-24T13:22:28.788Z,26.88
2023-02-24T13:25:11.456Z,26.35
2023-02-24T13:27:42.569Z,26.52
2023-02-24T13:30:27.257Z,25.91
2023-02-24T13:33:04.542Z,25.94
2023-02-24T13:35:35.812Z,25.59
2023-02-24T13:38:25.166Z,26.65
2023-02-24T13:40:53.440Z,27.13
2023-02-24T13:43:33.205Z,28.19
2023-02-24T13:46:04.770Z,29.14
2023-02-24T13:48:44.594Z,29.89
2023-02-24T13:51:39.325Z,30.58
2023-02-24T13:54:26.668Z,31.20
2023-02-24T13:56:57.625Z,32.14
2023-02-24T13:59:42.626Z,32.61
2023-02-24T14:02:16.893Z,32.97
2023-02-24T14:04:50.346Z,32.65
2023-02-24T14:07:22.757Z,33.06
2023-02-24T14:09:57.468Z,33.34
2023-02-24T14:12:28.241Z,33.07
2023-02-24T14:14:57.165Z,33.30
2023-02-24T14:17:28.753Z,33.29
2023-02-24T14:20:09.024Z,32.91
2023-02-24T14:22:44.992Z,33.22
2023-02-24T14:25:15.803Z,33.06
2023-02-24T14:27:45.980Z,33.04
2023-02-24T14:30:25.789Z,33.22
2023-02-24T14:32:54.559Z,32.67
2023-02-24T14:35:28.923Z,32.66
2023-02-24T14:37:57.737Z,32.92
2023-02-24T14:40:27.563Z,32.51
2023-02-24T14:42:57.234Z,31.95
2023-02-24T14:45:27.288Z,31.79
2023-02-24T14:47:56.974Z,31.89
2023-02-24T14:50:29.000Z,31.80
2023-02-24T14:53:01.702Z,31.35
2023-02-24T14:55:33.829Z,31.53
2023-02-24T14:58:06.275Z,31.99
2023-02-24T15:00:37.518Z,31.79
2023-02-24T15:03:13.991Z,32.29
2023-02-24T15:05:44.816Z,31.77
2023-02-24T15:08:27.759Z,31.91
2023-02-24T15:10:57.417Z,32.51
2023-02-24T15:13:36.018Z,32.29
2023-02-24T15:16:11.194Z,32.21
2023-02-24T15:18:39.482Z,32.42
2023-02-24T15:21:09.094Z,32.38
2023-02-24T15:23:39.256Z,32.95
2023-02-24T15:26:09.796Z,33.20
2023-02-24T15:28:38.974Z,33.06
2023-02-24T15:31:11.472Z,33.18
2023-02-24T15:33:41.858Z,32.77
2023-02-24T15:36:12.965Z,32.94
2023-02-24T15:38:43.442Z,32.98
2023-02-24T15:41:15.178Z,33.37
2023-02-24T15:43:48.685Z,33.13
2023-02-24T15:46:24.388Z,33.44
2023-02-24T15:48:55.508Z,33.68
2023-02-24T15:51:32.320Z,33.75
2023-02-24T15:54:01.864Z,33.42
2023-02-24T15:56:34.977Z,34.38
2023-02-24T15:59:03.441Z,34.06
2023-02-24T16:01:32.683Z,34.59
2023-02-24T16:04:01.158Z,34.51
2023-02-24T16:06:30.007Z,34.47
2023-02-24T16:08:59.952Z,34.76
2023-02-24T16:11:32.947Z,35.26
2023-02-24T16:14:02.420Z,34.69
2023-02-24T16:16:33.432Z,35.01
2023-02-24T16:19:01.589Z,35.59
2023-02-24T16:21:30.326Z,35.53
2023-02-24T16:23:58.357Z,35.26
2023-02-24T16:26:26.465Z,35.86
2023-02-24T16:28:56.437Z,35.67
2023-02-24T16:31:27.812Z,35.44
2023-02-24T16:33:56.521Z,35.92
2023-02-24T16:36:26.313Z,36.19
2023-02-24T16:38:54.618Z,35.92
2023-02-24T16:41:23.392Z,36.50
2023-02-24T16:43:52.265Z,36.73
2023-02-24T16:46:23.758Z,36.41
2023-02-24T16:48:54.416Z,37.18
2023-02-24T16:51:23.394Z,37.03
2023-02-24T16:53:51.431Z,36.72
2023-02-24T16:56:19.654Z,37.29
2023-02-24T16:58:47.896Z,36.95
2023-02-24T17:01:20.407Z,37.16
2023-02-24T17:03:51.145Z,37.41
2023-02-24T17:06:22.921Z,37.67
2023-02-24T17:08:52.040Z,37.92
2023-02-24T17:11:21.925Z,37.81
2023-02-24T17:13:49.996Z,38.08
2023-02-24T17:16:17.971Z,38.19
2023-02-24T17:18:45.935Z,38.19
2023-02-24T17:21:14.847Z,38.27
2023-02-24T17:23:44.265Z,38.29
2023-02-24T17:26:15.763Z,38.26
2023-02-24T17:28:44.151Z,38.38
2023-02-24T17:31:12.563Z,38.26
2023-02-24T17:33:41.642Z,38.64
2023-02-24T17:36:09.942Z,38.78
2023-02-24T17:38:38.083Z,38.58
2023-02-24T17:41:07.543Z,38.58
2023-02-24T17:43:35.569Z,38.23
2023-02-24T17:46:07.004Z,38.79
2023-02-24T17:48:35.466Z,38.93
2023-02-24T17:51:03.516Z,38.70
2023-02-24T17:53:32.278Z,38.44
2023-02-24T17:56:04.256Z,38.80
2023-02-24T17:58:34.869Z,39.12
2023-02-24T18:01:03.512Z,39.08
2023-02-24T18:03:32.214Z,39.04
2023-02-24T18:06:00.927Z,39.44
2023-02-24T18:08:30.631Z,38.95
2023-02-24T18:10:59.959Z,39.42
2023-02-24T18:13:29.100Z,38.87
2023-02-24T18:15:58.854Z,38.88
2023-02-24T18:18:28.059Z,38.87
2023-02-24T18:21:01.706Z,39.30
2023-02-24T18:23:29.990Z,39.06
2023-02-24T18:25:58.069Z,39.00
2023-02-24T18:28:26.133Z,39.70
2023-02-24T18:30:54.236Z,39.92
2023-02-24T18:33:23.987Z,39.46
2023-02-24T18:35:59.067Z,40.07
2023-02-24T18:38:27.208Z,39.65
2023-02-24T18:40:59.494Z,39.57
2023-02-24T18:43:27.686Z,39.47
2023-02-24T18:46:00.263Z,39.58
2023-02-24T18:48:30.548Z,39.92
2023-02-24T18:50:59.355Z,39.24
2023-02-24T18:53:29.034Z,39.44
2023-02-24T18:56:00.538Z,39.44
2023-02-24T18:58:28.836Z,39.29
2023-02-24T19:00:57.352Z,39.40
2023-02-24T19:03:25.809Z,39.90
2023-02-24T19:05:55.259Z,39.92
2023-02-24T19:08:23.294Z,39.66
2023-02-24T19:10:51.345Z,40.13
2023-02-24T19:13:19.384Z,39.62
2023-02-24T19:15:48.428Z,39.85
2023-02-24T19:18:17.119Z,39.65
2023-02-24T19:20:45.397Z,39.76
2023-02-24T19:23:14.808Z,40.40
2023-02-24T19:25:42.791Z,39.37
2023-02-24T19:28:10.862Z,39.66
2023-02-24T19:30:40.440Z,38.71
2023-02-24T19:33:09.712Z,39.06
2023-02-24T19:35:40.935Z,38.41
2023-02-24T19:38:08.967Z,39.09
2023-02-24T19:40:38.413Z,39.21
2023-02-24T19:43:06.748Z,39.68
2023-02-24T19:45:34.804Z,40.34
2023-02-24T19:48:02.816Z,40.62
2023-02-24T19:50:30.774Z,39.93
2023-02-24T19:52:58.820Z,40.60
2023-02-24T19:55:26.884Z,41.22
2023-02-24T19:57:56.625Z,41.07
2023-02-24T20:00:25.189Z,40.18
2023-02-24T20:02:53.514Z,39.89
2023-02-24T20:05:21.530Z,39.89
2023-02-24T20:07:49.755Z,39.47
2023-02-24T20:10:18.527Z,39.30
2023-02-24T20:12:46.531Z,39.80
2023-02-24T20:15:16.146Z,39.32
2023-02-24T20:17:44.093Z,40.44
2023-02-24T20:20:13.612Z,41.17
2023-02-24T20:22:41.566Z,41.86
2023-02-24T20:25:10.443Z,41.37
2023-02-24T20:27:38.452Z,41.37
2023-02-24T20:30:07.235Z,41.24
2023-02-24T20:32:36.744Z,40.71
2023-02-24T20:35:05.048Z,41.35
2023-02-24T20:37:33.117Z,41.37
2023-02-24T20:40:01.191Z,41.08
2023-02-24T20:42:29.176Z,41.33
2023-02-24T20:44:57.145Z,40.61
2023-02-24T20:47:25.176Z,40.23
2023-02-24T20:49:54.577Z,40.75
2023-02-24T20:52:22.604Z,40.63
2023-02-24T20:54:50.962Z,40.78
2023-02-24T20:57:19.006Z,41.13
2023-02-24T21:00:02.514Z,41.59
2023-02-24T21:02:31.279Z,41.79
2023-02-24T21:05:00.783Z,42.13
2023-02-24T21:07:28.790Z,41.48
2023-02-24T21:09:56.841Z,42.25
2023-02-24T21:12:24.923Z,41.48
2023-02-24T21:14:52.860Z,41.74
2023-02-24T21:17:21.057Z,42.15
2023-02-24T21:19:49.896Z,42.04
2023-02-24T21:22:19.238Z,42.92
2023-02-24T21:24:47.431Z,41.83
2023-02-24T21:27:15.417Z,42.15
2023-02-24T21:29:43.607Z,41.99
2023-02-24T21:32:11.677Z,42.24
2023-02-24T21:34:39.701Z,42.08
2023-02-24T21:37:07.794Z,42.77
2023-02-24T21:39:37.246Z,42.12
2023-02-24T21:42:07.488Z,41.83
2023-02-24T21:44:35.455Z,42.29
2023-02-24T21:47:03.372Z,42.88
2023-02-24T21:49:31.461Z,43.09
2023-02-24T21:51:59.720Z,43.10
2023-02-24T21:54:27.897Z,42.31
2023-02-24T21:56:57.344Z,42.37
2023-02-24T21:59:25.357Z,42.86
2023-02-24T22:01:54.298Z,42.64
2023-02-24T22:04:23.351Z,42.89
2023-02-24T22:06:51.465Z,42.29
2023-02-24T22:09:20.227Z,42.28
2023-02-24T22:11:50.426Z,42.41
2023-02-24T22:14:20.497Z,42.32
2023-02-24T22:16:48.462Z,42.52
2023-02-24T22:19:19.116Z,43.14
2023-02-24T22:21:47.697Z,42.51
2023-02-24T22:24:18.208Z,42.93
2023-02-24T22:26:46.851Z,42.87
2023-02-24T22:29:15.052Z,43.57
2023-02-24T22:31:47.630Z,43.40
2023-02-24T22:34:17.138Z,43.53
2023-02-24T22:36:45.158Z,42.64
2023-02-24T22:39:16.575Z,43.02
2023-02-24T22:41:45.649Z,43.87
2023-02-24T22:44:14.400Z,43.38
2023-02-24T22:46:42.447Z,43.51
2023-02-24T22:49:12.392Z,44.42
2023-02-24T22:51:40.467Z,44.15
2023-02-24T22:54:08.493Z,44.01
2023-02-24T22:56:37.957Z,43.86
2023-02-24T22:59:06.114Z,43.84
2023-02-24T23:01:36.145Z,43.90
2023-02-24T23:04:06.923Z,43.76
2023-02-24T23:06:37.505Z,44.81
2023-02-24T23:09:06.838Z,45.20
2023-02-24T23:11:37.373Z,44.77
2023-02-24T23:14:07.145Z,45.01
2023-02-24T23:16:37.034Z,45.53
2023-02-24T23:19:08.615Z,45.37
2023-02-24T23:21:40.202Z,45.81
2023-02-24T23:24:10.982Z,47.03
2023-02-24T23:26:41.985Z,46.55
2023-02-24T23:29:11.587Z,46.66
2023-02-24T23:31:40.655Z,47.94
2023-02-24T23:34:09.077Z,48.22
2023-02-24T23:36:41.049Z,47.83
2023-02-24T23:39:10.037Z,47.84
2023-02-24T23:41:38.777Z,48.38
2023-02-24T23:44:07.402Z,48.81
2023-02-24T23:46:37.409Z,49.54
2023-02-24T23:49:06.375Z,49.77
2023-02-24T23:51:50.137Z,50.85
2023-02-24T23:54:20.485Z,50.97
2023-02-24T23:56:48.735Z,51.27
2023-02-24T23:59:17.190Z,50.93
